sensor_id;sensor_type;location;lat;lon;timestamp;temperature;humidity
5055;DHT22;13829;48.990;8.346;2022-10-30T00:01:41;13.80;99.90
5055;DHT22;13829;48.990;8.346;2022-10-30T00:04:08;13.80;99.90
5055;DHT22;13829;48.990;8.346;2022-10-30T00:06:35;13.70;99.90
5055;DHT22;13829;48.990;8.346;2022-10-30T00:09:02;13.90;99.90
5055;DHT22;13829;48.990;8.346;2022-10-30T00:11:29;13.90;99.90
5055;DHT22;13829;48.990;8.346;2022-10-30T00:13:57;13.90;99.90
5055;DHT22;13829;48.990;8.346;2022-10-30T00:16:24;13.90;99.90
5055;DHT22;13829;48.990;8.346;2022-10-30T00:18:52;13.90;99.90
5055;DHT22;13829;48.990;8.346;2022-10-30T00:21:19;13.90;99.90
5055;DHT22;13829;48.990;8.346;2022-10-30T00:23:47;13.90;99.90
5055;DHT22;13829;48.990;8.346;2022-10-30T00:26:15;13.90;99.90
5055;DHT22;13829;48.990;8.346;2022-10-30T00:28:43;13.90;99.90
5055;DHT22;13829;48.990;8.346;2022-10-30T00:31:11;13.90;99.90
5055;DHT22;13829;48.990;8.346;2022-10-30T00:33:38;13.90;99.90
5055;DHT22;13829;48.990;8.346;2022-10-30T00:36:05;13.80;99.90
5055;DHT22;13829;48.990;8.346;2022-10-30T00:38:32;13.90;99.90
5055;DHT22;13829;48.990;8.346;2022-10-30T00:40:59;13.90;99.90
5055;DHT22;13829;48.990;8.346;2022-10-30T00:43:32;13.80;99.90
5055;DHT22;13829;48.990;8.346;2022-10-30T00:46:05;13.80;99.90
5055;DHT22;13829;48.990;8.346;2022-10-30T00:48:41;13.90;99.90
5055;DHT22;13829;48.990;8.346;2022-10-30T00:51:11;13.80;99.90
5055;DHT22;13829;48.990;8.346;2022-10-30T00:53:41;13.80;99.90
5055;DHT22;13829;48.990;8.346;2022-10-30T00:56:09;13.80;99.90
5055;DHT22;13829;48.990;8.346;2022-10-30T00:58:45;13.90;99.90
5055;DHT22;13829;48.990;8.346;2022-10-30T01:01:18;13.90;99.90
5055;DHT22;13829;48.990;8.346;2022-10-30T01:03:56;13.90;99.90
5055;DHT22;13829;48.990;8.346;2022-10-30T01:06:25;13.90;99.90
5055;DHT22;13829;48.990;8.346;2022-10-30T01:08:54;13.90;99.90
5055;DHT22;13829;48.990;8.346;2022-10-30T01:11:21;13.80;99.90
5055;DHT22;13829;48.990;8.346;2022-10-30T01:13:49;13.90;99.90
5055;DHT22;13829;48.990;8.346;2022-10-30T01:16:36;13.90;99.90
5055;DHT22;13829;48.990;8.346;2022-10-30T01:19:20;13.80;99.90
5055;DHT22;13829;48.990;8.346;2022-10-30T01:22:02;13.80;99.90
5055;DHT22;13829;48.990;8.346;2022-10-30T01:24:48;13.80;99.90
5055;DHT22;13829;48.990;8.346;2022-10-30T01:27:33;13.70;99.90
5055;DHT22;13829;48.990;8.346;2022-10-30T01:30:17;13.80;99.90
5055;DHT22;13829;48.990;8.346;2022-10-30T01:33:03;13.80;99.90
5055;DHT22;13829;48.990;8.346;2022-10-30T01:35:46;13.80;99.90
5055;DHT22;13829;48.990;8.346;2022-10-30T01:38:21;13.80;99.90
5055;DHT22;13829;48.990;8.346;2022-10-30T01:40:51;13.70;99.90
5055;DHT22;13829;48.990;8.346;2022-10-30T01:43:18;13.70;99.90
5055;DHT22;13829;48.990;8.346;2022-10-30T01:45:58;13.70;99.90
5055;DHT22;13829;48.990;8.346;2022-10-30T01:49:12;13.70;99.90
5055;DHT22;13829;48.990;8.346;2022-10-30T01:51:57;13.60;99.90
5055;DHT22;13829;48.990;8.346;2022-10-30T01:54:37;13.60;99.90
5055;DHT22;13829;48.990;8.346;2022-10-30T01:57:16;13.60;99.90
5055;DHT22;13829;48.990;8.346;2022-10-30T01:59:55;13.50;99.90
5055;DHT22;13829;48.990;8.346;2022-10-30T02:02:27;13.50;99.90
5055;DHT22;13829;48.990;8.346;2022-10-30T02:04:55;13.50;99.90
5055;DHT22;13829;48.990;8.346;2022-10-30T02:07:24;13.50;99.90
5055;DHT22;13829;48.990;8.346;2022-10-30T02:09:51;13.40;99.90
5055;DHT22;13829;48.990;8.346;2022-10-30T02:12:20;13.40;99.90
5055;DHT22;13829;48.990;8.346;2022-10-30T02:14:51;13.30;99.90
5055;DHT22;13829;48.990;8.346;2022-10-30T02:17:21;13.30;99.90
5055;DHT22;13829;48.990;8.346;2022-10-30T02:19:49;13.30;99.90
5055;DHT22;13829;48.990;8.346;2022-10-30T02:22:17;13.30;99.90
5055;DHT22;13829;48.990;8.346;2022-10-30T02:24:45;13.20;99.90
5055;DHT22;13829;48.990;8.346;2022-10-30T02:27:11;13.10;99.90
5055;DHT22;13829;48.990;8.346;2022-10-30T02:29:38;13.00;99.90
5055;DHT22;13829;48.990;8.346;2022-10-30T02:32:05;13.00;99.90
5055;DHT22;13829;48.990;8.346;2022-10-30T02:34:32;12.90;99.90
5055;DHT22;13829;48.990;8.346;2022-10-30T02:36:59;12.90;99.90
5055;DHT22;13829;48.990;8.346;2022-10-30T02:39:27;12.80;99.90
5055;DHT22;13829;48.990;8.346;2022-10-30T02:41:54;12.90;99.90
5055;DHT22;13829;48.990;8.346;2022-10-30T02:44:21;12.70;99.90
5055;DHT22;13829;48.990;8.346;2022-10-30T02:46:48;12.80;99.90
5055;DHT22;13829;48.990;8.346;2022-10-30T02:49:15;12.80;99.90
5055;DHT22;13829;48.990;8.346;2022-10-30T02:51:42;12.70;99.90
5055;DHT22;13829;48.990;8.346;2022-10-30T02:54:09;12.60;99.90
5055;DHT22;13829;48.990;8.346;2022-10-30T02:56:39;12.60;99.90
5055;DHT22;13829;48.990;8.346;2022-10-30T02:59:06;12.60;99.90
5055;DHT22;13829;48.990;8.346;2022-10-30T03:01:33;12.60;99.90
5055;DHT22;13829;48.990;8.346;2022-10-30T03:04:00;12.60;99.90
5055;DHT22;13829;48.990;8.346;2022-10-30T03:06:27;12.60;99.90
5055;DHT22;13829;48.990;8.346;2022-10-30T03:08:54;12.50;99.90
5055;DHT22;13829;48.990;8.346;2022-10-30T03:11:21;12.50;99.90
5055;DHT22;13829;48.990;8.346;2022-10-30T03:13:49;12.50;99.90
5055;DHT22;13829;48.990;8.346;2022-10-30T03:16:18;12.40;99.90
5055;DHT22;13829;48.990;8.346;2022-10-30T03:18:47;12.40;99.90
5055;DHT22;13829;48.990;8.346;2022-10-30T03:21:16;12.40;99.90
5055;DHT22;13829;48.990;8.346;2022-10-30T03:23:44;12.30;99.90
5055;DHT22;13829;48.990;8.346;2022-10-30T03:26:11;12.30;99.90
5055;DHT22;13829;48.990;8.346;2022-10-30T03:28:38;12.40;99.90
5055;DHT22;13829;48.990;8.346;2022-10-30T03:31:08;12.30;99.90
5055;DHT22;13829;48.990;8.346;2022-10-30T03:33:37;12.30;99.90
5055;DHT22;13829;48.990;8.346;2022-10-30T03:36:05;12.30;99.90
5055;DHT22;13829;48.990;8.346;2022-10-30T03:38:33;12.30;99.90
5055;DHT22;13829;48.990;8.346;2022-10-30T03:41:00;12.30;99.90
5055;DHT22;13829;48.990;8.346;2022-10-30T03:43:27;12.20;99.90
5055;DHT22;13829;48.990;8.346;2022-10-30T03:45:55;12.20;99.90
5055;DHT22;13829;48.990;8.346;2022-10-30T03:48:25;12.10;99.90
5055;DHT22;13829;48.990;8.346;2022-10-30T03:50:54;12.10;99.90
5055;DHT22;13829;48.990;8.346;2022-10-30T03:53:22;12.10;99.90
5055;DHT22;13829;48.990;8.346;2022-10-30T03:55:50;12.00;99.90
5055;DHT22;13829;48.990;8.346;2022-10-30T03:58:18;12.00;99.90
5055;DHT22;13829;48.990;8.346;2022-10-30T04:00:45;12.00;99.90
5055;DHT22;13829;48.990;8.346;2022-10-30T04:03:12;12.00;99.90
5055;DHT22;13829;48.990;8.346;2022-10-30T04:05:40;11.90;99.90
5055;DHT22;13829;48.990;8.346;2022-10-30T04:08:10;11.90;99.90
5055;DHT22;13829;48.990;8.346;2022-10-30T04:10:41;12.00;99.90
5055;DHT22;13829;48.990;8.346;2022-10-30T04:13:09;12.00;99.90
5055;DHT22;13829;48.990;8.346;2022-10-30T04:15:38;12.00;99.90
5055;DHT22;13829;48.990;8.346;2022-10-30T04:18:05;11.90;99.90
5055;DHT22;13829;48.990;8.346;2022-10-30T04:20:35;11.90;99.90
5055;DHT22;13829;48.990;8.346;2022-10-30T04:23:04;11.90;99.90
5055;DHT22;13829;48.990;8.346;2022-10-30T04:25:33;11.90;99.90
5055;DHT22;13829;48.990;8.346;2022-10-30T04:28:01;11.90;99.90
5055;DHT22;13829;48.990;8.346;2022-10-30T04:30:29;11.80;99.90
5055;DHT22;13829;48.990;8.346;2022-10-30T04:33:00;11.80;99.90
5055;DHT22;13829;48.990;8.346;2022-10-30T04:35:30;11.70;99.90
5055;DHT22;13829;48.990;8.346;2022-10-30T04:38:00;11.70;99.90
5055;DHT22;13829;48.990;8.346;2022-10-30T04:40:31;11.70;99.90
5055;DHT22;13829;48.990;8.346;2022-10-30T04:43:00;11.80;99.90
5055;DHT22;13829;48.990;8.346;2022-10-30T04:45:27;11.50;99.90
5055;DHT22;13829;48.990;8.346;2022-10-30T04:47:59;11.50;99.90
5055;DHT22;13829;48.990;8.346;2022-10-30T04:50:27;11.50;99.90
5055;DHT22;13829;48.990;8.346;2022-10-30T04:52:59;11.40;99.90
5055;DHT22;13829;48.990;8.346;2022-10-30T04:55:28;11.30;99.90
5055;DHT22;13829;48.990;8.346;2022-10-30T04:57:56;11.30;99.90
5055;DHT22;13829;48.990;8.346;2022-10-30T05:00:24;11.30;99.90
5055;DHT22;13829;48.990;8.346;2022-10-30T05:02:52;11.30;99.90
5055;DHT22;13829;48.990;8.346;2022-10-30T05:05:19;11.30;99.90
5055;DHT22;13829;48.990;8.346;2022-10-30T05:07:46;11.30;99.90
5055;DHT22;13829;48.990;8.346;2022-10-30T05:10:13;11.30;99.90
5055;DHT22;13829;48.990;8.346;2022-10-30T05:12:44;11.30;99.90
5055;DHT22;13829;48.990;8.346;2022-10-30T05:15:12;11.30;99.90
5055;DHT22;13829;48.990;8.346;2022-10-30T05:17:40;11.30;99.90
5055;DHT22;13829;48.990;8.346;2022-10-30T05:20:08;11.30;99.90
5055;DHT22;13829;48.990;8.346;2022-10-30T05:22:35;11.20;99.90
5055;DHT22;13829;48.990;8.346;2022-10-30T05:25:03;11.20;99.90
5055;DHT22;13829;48.990;8.346;2022-10-30T05:27:30;11.20;99.90
5055;DHT22;13829;48.990;8.346;2022-10-30T05:29:58;11.20;99.90
5055;DHT22;13829;48.990;8.346;2022-10-30T05:32:25;11.20;99.90
5055;DHT22;13829;48.990;8.346;2022-10-30T05:34:52;11.20;99.90
5055;DHT22;13829;48.990;8.346;2022-10-30T05:37:19;11.20;99.90
5055;DHT22;13829;48.990;8.346;2022-10-30T05:39:46;11.10;99.90
5055;DHT22;13829;48.990;8.346;2022-10-30T05:42:13;11.10;99.90
5055;DHT22;13829;48.990;8.346;2022-10-30T05:44:40;11.10;99.90
5055;DHT22;13829;48.990;8.346;2022-10-30T05:47:10;11.00;99.90
5055;DHT22;13829;48.990;8.346;2022-10-30T05:49:37;11.00;99.90
5055;DHT22;13829;48.990;8.346;2022-10-30T05:52:04;10.90;99.90
5055;DHT22;13829;48.990;8.346;2022-10-30T05:54:31;10.90;99.90
5055;DHT22;13829;48.990;8.346;2022-10-30T05:56:58;10.80;99.90
5055;DHT22;13829;48.990;8.346;2022-10-30T05:59:25;10.90;99.90
5055;DHT22;13829;48.990;8.346;2022-10-30T06:01:52;10.90;99.90
5055;DHT22;13829;48.990;8.346;2022-10-30T06:04:21;10.90;99.90
5055;DHT22;13829;48.990;8.346;2022-10-30T06:06:48;10.90;99.90
5055;DHT22;13829;48.990;8.346;2022-10-30T06:09:15;10.90;99.90
5055;DHT22;13829;48.990;8.346;2022-10-30T06:11:42;10.80;99.90
5055;DHT22;13829;48.990;8.346;2022-10-30T06:14:09;10.90;99.90
5055;DHT22;13829;48.990;8.346;2022-10-30T06:16:36;10.90;99.90
5055;DHT22;13829;48.990;8.346;2022-10-30T06:19:03;10.90;99.90
5055;DHT22;13829;48.990;8.346;2022-10-30T06:21:31;10.90;99.90
5055;DHT22;13829;48.990;8.346;2022-10-30T06:23:58;11.00;99.90
5055;DHT22;13829;48.990;8.346;2022-10-30T06:26:25;11.00;99.90
5055;DHT22;13829;48.990;8.346;2022-10-30T06:28:51;11.20;99.90
5055;DHT22;13829;48.990;8.346;2022-10-30T06:31:18;11.10;99.90
5055;DHT22;13829;48.990;8.346;2022-10-30T06:33:45;11.10;99.90
5055;DHT22;13829;48.990;8.346;2022-10-30T06:36:12;11.10;99.90
5055;DHT22;13829;48.990;8.346;2022-10-30T06:38:40;11.20;99.90
5055;DHT22;13829;48.990;8.346;2022-10-30T06:41:07;11.30;99.90
5055;DHT22;13829;48.990;8.346;2022-10-30T06:43:34;11.40;99.90
5055;DHT22;13829;48.990;8.346;2022-10-30T06:46:02;11.40;99.90
5055;DHT22;13829;48.990;8.346;2022-10-30T06:48:29;11.40;99.90
5055;DHT22;13829;48.990;8.346;2022-10-30T06:50:57;11.50;99.90
5055;DHT22;13829;48.990;8.346;2022-10-30T06:53:25;11.60;99.90
5055;DHT22;13829;48.990;8.346;2022-10-30T06:55:55;11.80;99.90
5055;DHT22;13829;48.990;8.346;2022-10-30T06:58:23;11.90;99.90
5055;DHT22;13829;48.990;8.346;2022-10-30T07:00:50;12.10;99.90
5055;DHT22;13829;48.990;8.346;2022-10-30T07:03:17;12.60;99.90
5055;DHT22;13829;48.990;8.346;2022-10-30T07:05:45;13.20;99.90
5055;DHT22;13829;48.990;8.346;2022-10-30T07:08:12;14.00;99.90
5055;DHT22;13829;48.990;8.346;2022-10-30T07:10:39;14.80;99.90
5055;DHT22;13829;48.990;8.346;2022-10-30T07:13:07;15.30;99.90
5055;DHT22;13829;48.990;8.346;2022-10-30T07:15:34;15.70;99.90
5055;DHT22;13829;48.990;8.346;2022-10-30T07:18:02;16.10;99.90
5055;DHT22;13829;48.990;8.346;2022-10-30T07:20:31;16.30;99.90
5055;DHT22;13829;48.990;8.346;2022-10-30T07:22:59;17.10;99.90
5055;DHT22;13829;48.990;8.346;2022-10-30T07:25:26;17.40;99.90
5055;DHT22;13829;48.990;8.346;2022-10-30T07:27:54;17.20;99.90
5055;DHT22;13829;48.990;8.346;2022-10-30T07:30:25;17.60;99.90
5055;DHT22;13829;48.990;8.346;2022-10-30T07:32:57;17.60;99.90
5055;DHT22;13829;48.990;8.346;2022-10-30T07:35:25;17.70;99.90
5055;DHT22;13829;48.990;8.346;2022-10-30T07:37:53;17.90;99.90
5055;DHT22;13829;48.990;8.346;2022-10-30T07:40:21;17.60;99.90
5055;DHT22;13829;48.990;8.346;2022-10-30T07:42:48;17.70;99.90
5055;DHT22;13829;48.990;8.346;2022-10-30T07:45:15;17.90;99.90
5055;DHT22;13829;48.990;8.346;2022-10-30T07:47:44;18.20;99.90
5055;DHT22;13829;48.990;8.346;2022-10-30T07:50:10;18.20;99.90
5055;DHT22;13829;48.990;8.346;2022-10-30T07:52:37;18.00;99.90
5055;DHT22;13829;48.990;8.346;2022-10-30T07:55:05;17.80;99.90
5055;DHT22;13829;48.990;8.346;2022-10-30T07:57:34;17.60;99.90
5055;DHT22;13829;48.990;8.346;2022-10-30T08:00:03;17.30;99.90
5055;DHT22;13829;48.990;8.346;2022-10-30T08:02:32;17.20;99.90
5055;DHT22;13829;48.990;8.346;2022-10-30T08:05:00;17.00;99.90
5055;DHT22;13829;48.990;8.346;2022-10-30T08:07:30;16.80;99.90
5055;DHT22;13829;48.990;8.346;2022-10-30T08:09:58;16.90;99.90
5055;DHT22;13829;48.990;8.346;2022-10-30T08:12:25;16.80;99.90
5055;DHT22;13829;48.990;8.346;2022-10-30T08:14:53;16.90;99.90
5055;DHT22;13829;48.990;8.346;2022-10-30T08:17:20;17.00;99.90
5055;DHT22;13829;48.990;8.346;2022-10-30T08:19:47;16.90;99.90
5055;DHT22;13829;48.990;8.346;2022-10-30T08:22:16;16.90;99.90
5055;DHT22;13829;48.990;8.346;2022-10-30T08:24:43;17.00;99.90
5055;DHT22;13829;48.990;8.346;2022-10-30T08:27:10;17.00;99.90
5055;DHT22;13829;48.990;8.346;2022-10-30T08:29:37;17.10;99.90
5055;DHT22;13829;48.990;8.346;2022-10-30T08:32:04;17.20;99.90
5055;DHT22;13829;48.990;8.346;2022-10-30T08:34:31;17.20;99.90
5055;DHT22;13829;48.990;8.346;2022-10-30T08:36:59;17.10;99.90
5055;DHT22;13829;48.990;8.346;2022-10-30T08:39:27;17.20;99.90
5055;DHT22;13829;48.990;8.346;2022-10-30T08:41:56;17.30;99.90
5055;DHT22;13829;48.990;8.346;2022-10-30T08:44:24;17.20;99.90
5055;DHT22;13829;48.990;8.346;2022-10-30T08:46:51;17.10;99.90
5055;DHT22;13829;48.990;8.346;2022-10-30T08:49:18;17.10;99.90
5055;DHT22;13829;48.990;8.346;2022-10-30T08:51:45;17.00;99.90
5055;DHT22;13829;48.990;8.346;2022-10-30T08:54:12;17.00;99.90
5055;DHT22;13829;48.990;8.346;2022-10-30T08:56:40;17.00;99.90
5055;DHT22;13829;48.990;8.346;2022-10-30T08:59:07;17.10;99.90
5055;DHT22;13829;48.990;8.346;2022-10-30T09:01:34;17.10;99.90
5055;DHT22;13829;48.990;8.346;2022-10-30T09:04:01;17.20;99.90
5055;DHT22;13829;48.990;8.346;2022-10-30T09:06:29;17.10;99.90
5055;DHT22;13829;48.990;8.346;2022-10-30T09:08:57;17.20;99.90
5055;DHT22;13829;48.990;8.346;2022-10-30T09:11:24;17.20;99.90
5055;DHT22;13829;48.990;8.346;2022-10-30T09:13:52;17.10;99.90
5055;DHT22;13829;48.990;8.346;2022-10-30T09:16:19;17.10;99.90
5055;DHT22;13829;48.990;8.346;2022-10-30T09:18:46;17.10;99.90
5055;DHT22;13829;48.990;8.346;2022-10-30T09:21:13;17.00;99.90
5055;DHT22;13829;48.990;8.346;2022-10-30T09:23:41;17.00;99.90
5055;DHT22;13829;48.990;8.346;2022-10-30T09:26:09;17.00;99.90
5055;DHT22;13829;48.990;8.346;2022-10-30T09:28:36;17.00;99.90
5055;DHT22;13829;48.990;8.346;2022-10-30T09:31:05;17.00;99.90
5055;DHT22;13829;48.990;8.346;2022-10-30T09:33:32;17.00;99.90
5055;DHT22;13829;48.990;8.346;2022-10-30T09:35:58;17.00;99.90
5055;DHT22;13829;48.990;8.346;2022-10-30T09:38:27;17.10;99.90
5055;DHT22;13829;48.990;8.346;2022-10-30T09:41:12;17.10;99.90
5055;DHT22;13829;48.990;8.346;2022-10-30T09:44:02;17.20;99.90
5055;DHT22;13829;48.990;8.346;2022-10-30T09:46:51;17.40;99.90
5055;DHT22;13829;48.990;8.346;2022-10-30T09:49:54;17.50;99.90
5055;DHT22;13829;48.990;8.346;2022-10-30T09:52:35;17.50;99.90
5055;DHT22;13829;48.990;8.346;2022-10-30T09:55:19;17.50;99.90
5055;DHT22;13829;48.990;8.346;2022-10-30T09:58:03;17.60;99.90
5055;DHT22;13829;48.990;8.346;2022-10-30T10:00:43;17.60;99.90
5055;DHT22;13829;48.990;8.346;2022-10-30T10:03:29;17.50;99.90
5055;DHT22;13829;48.990;8.346;2022-10-30T10:06:05;17.60;99.90
5055;DHT22;13829;48.990;8.346;2022-10-30T10:08:41;17.60;99.90
5055;DHT22;13829;48.990;8.346;2022-10-30T10:11:14;17.70;99.90
5055;DHT22;13829;48.990;8.346;2022-10-30T10:13:48;17.70;99.90
5055;DHT22;13829;48.990;8.346;2022-10-30T10:16:19;17.80;99.90
5055;DHT22;13829;48.990;8.346;2022-10-30T10:18:54;17.80;99.90
5055;DHT22;13829;48.990;8.346;2022-10-30T10:21:27;17.80;99.90
5055;DHT22;13829;48.990;8.346;2022-10-30T10:23:57;17.90;99.90
5055;DHT22;13829;48.990;8.346;2022-10-30T10:26:42;17.90;99.90
5055;DHT22;13829;48.990;8.346;2022-10-30T10:29:32;17.90;99.90
5055;DHT22;13829;48.990;8.346;2022-10-30T10:32:16;18.00;99.90
5055;DHT22;13829;48.990;8.346;2022-10-30T10:35:23;18.00;99.90
5055;DHT22;13829;48.990;8.346;2022-10-30T10:38:08;18.10;99.90
5055;DHT22;13829;48.990;8.346;2022-10-30T10:40:51;18.10;99.90
5055;DHT22;13829;48.990;8.346;2022-10-30T10:43:34;18.10;99.90
5055;DHT22;13829;48.990;8.346;2022-10-30T10:46:30;18.20;99.90
5055;DHT22;13829;48.990;8.346;2022-10-30T10:49:19;18.20;99.90
5055;DHT22;13829;48.990;8.346;2022-10-30T10:52:00;18.20;99.90
5055;DHT22;13829;48.990;8.346;2022-10-30T10:54:34;18.30;99.90
5055;DHT22;13829;48.990;8.346;2022-10-30T10:57:07;18.30;99.90
5055;DHT22;13829;48.990;8.346;2022-10-30T10:59:44;18.30;99.90
5055;DHT22;13829;48.990;8.346;2022-10-30T11:02:31;18.40;99.90
5055;DHT22;13829;48.990;8.346;2022-10-30T11:05:07;18.40;99.90
5055;DHT22;13829;48.990;8.346;2022-10-30T11:07:46;18.50;99.90
5055;DHT22;13829;48.990;8.346;2022-10-30T11:10:16;18.50;99.90
5055;DHT22;13829;48.990;8.346;2022-10-30T11:12:44;18.50;99.90
5055;DHT22;13829;48.990;8.346;2022-10-30T11:15:22;18.50;99.90
5055;DHT22;13829;48.990;8.346;2022-10-30T11:18:00;18.50;99.90
5055;DHT22;13829;48.990;8.346;2022-10-30T11:20:37;18.50;99.90
5055;DHT22;13829;48.990;8.346;2022-10-30T11:23:35;18.40;99.90
5055;DHT22;13829;48.990;8.346;2022-10-30T11:28:56;18.40;99.90
5055;DHT22;13829;48.990;8.346;2022-10-30T11:31:28;18.40;99.90
5055;DHT22;13829;48.990;8.346;2022-10-30T11:34:13;18.40;99.90
5055;DHT22;13829;48.990;8.346;2022-10-30T11:36:50;18.40;99.90
5055;DHT22;13829;48.990;8.346;2022-10-30T11:39:20;18.50;99.90
5055;DHT22;13829;48.990;8.346;2022-10-30T11:42:05;18.60;99.90
5055;DHT22;13829;48.990;8.346;2022-10-30T11:44:40;18.60;99.90
5055;DHT22;13829;48.990;8.346;2022-10-30T11:47:10;18.70;99.90
5055;DHT22;13829;48.990;8.346;2022-10-30T11:49:43;18.80;99.90
5055;DHT22;13829;48.990;8.346;2022-10-30T11:52:14;18.90;99.90
5055;DHT22;13829;48.990;8.346;2022-10-30T11:54:47;19.00;99.90
5055;DHT22;13829;48.990;8.346;2022-10-30T11:57:21;19.10;99.90
5055;DHT22;13829;48.990;8.346;2022-10-30T11:59:53;19.20;99.90
5055;DHT22;13829;48.990;8.346;2022-10-30T12:02:25;19.40;99.90
5055;DHT22;13829;48.990;8.346;2022-10-30T12:04:53;19.20;99.90
5055;DHT22;13829;48.990;8.346;2022-10-30T12:07:26;19.30;99.90
5055;DHT22;13829;48.990;8.346;2022-10-30T12:09:57;19.30;99.90
5055;DHT22;13829;48.990;8.346;2022-10-30T12:12:28;19.40;99.90
5055;DHT22;13829;48.990;8.346;2022-10-30T12:15:08;19.50;99.90
5055;DHT22;13829;48.990;8.346;2022-10-30T12:17:40;19.60;99.90
5055;DHT22;13829;48.990;8.346;2022-10-30T12:20:18;19.60;99.90
5055;DHT22;13829;48.990;8.346;2022-10-30T12:22:46;19.60;99.90
5055;DHT22;13829;48.990;8.346;2022-10-30T12:25:22;19.80;99.90
5055;DHT22;13829;48.990;8.346;2022-10-30T12:27:58;19.80;99.90
5055;DHT22;13829;48.990;8.346;2022-10-30T12:30:27;19.80;99.90
5055;DHT22;13829;48.990;8.346;2022-10-30T12:33:02;20.00;99.90
5055;DHT22;13829;48.990;8.346;2022-10-30T12:35:41;20.00;99.90
5055;DHT22;13829;48.990;8.346;2022-10-30T12:38:16;19.90;99.90
5055;DHT22;13829;48.990;8.346;2022-10-30T12:41:00;19.80;99.90
5055;DHT22;13829;48.990;8.346;2022-10-30T12:43:34;19.80;99.90
5055;DHT22;13829;48.990;8.346;2022-10-30T12:46:13;19.80;99.90
5055;DHT22;13829;48.990;8.346;2022-10-30T12:48:51;19.90;99.90
5055;DHT22;13829;48.990;8.346;2022-10-30T12:51:28;20.00;99.90
5055;DHT22;13829;48.990;8.346;2022-10-30T12:54:04;19.90;99.90
5055;DHT22;13829;48.990;8.346;2022-10-30T12:56:48;19.90;99.90
5055;DHT22;13829;48.990;8.346;2022-10-30T12:59:29;19.80;99.90
5055;DHT22;13829;48.990;8.346;2022-10-30T13:02:11;19.90;99.90
5055;DHT22;13829;48.990;8.346;2022-10-30T13:04:48;20.00;99.90
5055;DHT22;13829;48.990;8.346;2022-10-30T13:07:27;19.90;99.90
5055;DHT22;13829;48.990;8.346;2022-10-30T13:10:07;19.80;99.90
5055;DHT22;13829;48.990;8.346;2022-10-30T13:12:46;19.80;99.90
5055;DHT22;13829;48.990;8.346;2022-10-30T13:15:21;19.80;99.90
5055;DHT22;13829;48.990;8.346;2022-10-30T13:17:55;19.70;99.90
5055;DHT22;13829;48.990;8.346;2022-10-30T13:20:25;19.80;99.90
5055;DHT22;13829;48.990;8.346;2022-10-30T13:23:01;19.80;99.90
5055;DHT22;13829;48.990;8.346;2022-10-30T13:25:42;19.80;99.90
5055;DHT22;13829;48.990;8.346;2022-10-30T13:28:30;19.90;99.90
5055;DHT22;13829;48.990;8.346;2022-10-30T13:31:08;19.90;99.90
5055;DHT22;13829;48.990;8.346;2022-10-30T13:33:51;19.90;99.90
5055;DHT22;13829;48.990;8.346;2022-10-30T13:36:30;19.80;99.90
5055;DHT22;13829;48.990;8.346;2022-10-30T13:39:13;20.00;99.90
5055;DHT22;13829;48.990;8.346;2022-10-30T13:42:02;19.90;99.90
5055;DHT22;13829;48.990;8.346;2022-10-30T13:44:47;19.90;99.90
5055;DHT22;13829;48.990;8.346;2022-10-30T13:47:29;19.80;99.90
5055;DHT22;13829;48.990;8.346;2022-10-30T13:50:24;19.80;99.90
5055;DHT22;13829;48.990;8.346;2022-10-30T13:53:02;19.80;99.90
5055;DHT22;13829;48.990;8.346;2022-10-30T13:55:33;19.80;99.90
5055;DHT22;13829;48.990;8.346;2022-10-30T13:58:03;19.80;99.90
5055;DHT22;13829;48.990;8.346;2022-10-30T14:00:52;19.80;99.90
5055;DHT22;13829;48.990;8.346;2022-10-30T14:03:39;19.80;99.90
5055;DHT22;13829;48.990;8.346;2022-10-30T14:06:25;19.70;99.90
5055;DHT22;13829;48.990;8.346;2022-10-30T14:09:08;19.70;99.90
5055;DHT22;13829;48.990;8.346;2022-10-30T14:11:41;19.70;99.90
5055;DHT22;13829;48.990;8.346;2022-10-30T14:14:25;19.70;99.90
5055;DHT22;13829;48.990;8.346;2022-10-30T14:17:11;19.60;99.90
5055;DHT22;13829;48.990;8.346;2022-10-30T14:23:11;19.60;99.90
5055;DHT22;13829;48.990;8.346;2022-10-30T14:25:40;19.50;99.90
5055;DHT22;13829;48.990;8.346;2022-10-30T14:28:17;19.40;99.90
5055;DHT22;13829;48.990;8.346;2022-10-30T14:30:45;19.40;99.90
5055;DHT22;13829;48.990;8.346;2022-10-30T14:33:38;19.40;99.90
5055;DHT22;13829;48.990;8.346;2022-10-30T14:39:27;19.30;99.90
5055;DHT22;13829;48.990;8.346;2022-10-30T14:42:04;19.30;99.90
5055;DHT22;13829;48.990;8.346;2022-10-30T14:44:51;19.20;99.90
5055;DHT22;13829;48.990;8.346;2022-10-30T14:47:49;19.20;99.90
5055;DHT22;13829;48.990;8.346;2022-10-30T14:50:37;19.20;99.90
5055;DHT22;13829;48.990;8.346;2022-10-30T14:53:20;19.20;99.90
5055;DHT22;13829;48.990;8.346;2022-10-30T14:59:08;19.20;99.90
5055;DHT22;13829;48.990;8.346;2022-10-30T15:02:02;19.20;99.90
5055;DHT22;13829;48.990;8.346;2022-10-30T15:04:53;19.10;99.90
5055;DHT22;13829;48.990;8.346;2022-10-30T15:07:42;19.00;99.90
5055;DHT22;13829;48.990;8.346;2022-10-30T15:10:19;18.90;99.90
5055;DHT22;13829;48.990;8.346;2022-10-30T15:13:08;18.80;99.90
5055;DHT22;13829;48.990;8.346;2022-10-30T15:15:44;18.70;99.90
5055;DHT22;13829;48.990;8.346;2022-10-30T15:18:16;18.60;99.90
5055;DHT22;13829;48.990;8.346;2022-10-30T15:20:49;18.50;99.90
5055;DHT22;13829;48.990;8.346;2022-10-30T15:23:23;18.40;99.90
5055;DHT22;13829;48.990;8.346;2022-10-30T15:25:55;18.40;99.90
5055;DHT22;13829;48.990;8.346;2022-10-30T15:28:27;18.30;99.90
5055;DHT22;13829;48.990;8.346;2022-10-30T15:31:00;18.30;99.90
5055;DHT22;13829;48.990;8.346;2022-10-30T15:33:30;18.20;99.90
5055;DHT22;13829;48.990;8.346;2022-10-30T15:36:00;18.20;99.90
5055;DHT22;13829;48.990;8.346;2022-10-30T15:38:28;17.90;99.90
5055;DHT22;13829;48.990;8.346;2022-10-30T15:40:57;18.00;99.90
5055;DHT22;13829;48.990;8.346;2022-10-30T15:43:29;17.80;99.90
5055;DHT22;13829;48.990;8.346;2022-10-30T15:45:59;17.70;99.90
5055;DHT22;13829;48.990;8.346;2022-10-30T15:48:28;17.60;99.90
5055;DHT22;13829;48.990;8.346;2022-10-30T15:51:00;17.50;99.90
5055;DHT22;13829;48.990;8.346;2022-10-30T15:53:37;17.50;99.90
5055;DHT22;13829;48.990;8.346;2022-10-30T15:56:16;17.50;99.90
5055;DHT22;13829;48.990;8.346;2022-10-30T15:58:49;17.30;99.90
5055;DHT22;13829;48.990;8.346;2022-10-30T16:01:26;17.30;99.90
5055;DHT22;13829;48.990;8.346;2022-10-30T16:03:57;17.20;99.90
5055;DHT22;13829;48.990;8.346;2022-10-30T16:06:26;17.10;99.90
5055;DHT22;13829;48.990;8.346;2022-10-30T16:08:55;16.90;99.90
5055;DHT22;13829;48.990;8.346;2022-10-30T16:11:23;16.80;99.90
5055;DHT22;13829;48.990;8.346;2022-10-30T16:13:52;16.70;99.90
5055;DHT22;13829;48.990;8.346;2022-10-30T16:16:22;16.60;99.90
5055;DHT22;13829;48.990;8.346;2022-10-30T16:18:53;16.50;99.90
5055;DHT22;13829;48.990;8.346;2022-10-30T16:21:26;16.50;99.90
5055;DHT22;13829;48.990;8.346;2022-10-30T16:23:58;16.50;99.90
5055;DHT22;13829;48.990;8.346;2022-10-30T16:26:30;16.40;99.90
5055;DHT22;13829;48.990;8.346;2022-10-30T16:29:06;16.40;99.90
5055;DHT22;13829;48.990;8.346;2022-10-30T16:31:42;16.30;99.90